Terminal Aerodrome Forecast
Issued by NWS Pittsburgh, PA

Current Version | Previous Version | Text Only | Print | Product List | Glossary Off
Versions: 1 2 3 4 5 6 7 8 9 10 11 12 13 14 15 16 17 18 19 20 21 22 23 24 25 26 27 28 29 30 31 32 33 34

000
FTUS41 KPBZ 270800 AAA
TAFPIT
TAF AMD
KPIT 270818Z 2708/2812 00000KT 3SM BR SCT006 OVC045
     FM271500 28005KT 4SM BR OVC025
     FM271800 29008KT 4SM -SHSN OVC020=

USA.gov is the U.S. government's official web portal to all federal, state and local government web resources and services.